Time;durP1;ratioP1;P1;durP2;ratioP2;P2;SDS_P1;SDS_P2;PMS_P1;PMS_P2;Temp;Humidity;BMP_temperature;BMP_pressure;BME280_temperature;BME280_humidity;BME280_pressure;Samples;Min_cycle;Max_cycle;Signal;HPM_P1;HPM_P2
2020/12/29 00:01:41;;;;;;;;;;;;;;;;;;5072266;28;3919;-49
2020/12/29 00:04:10;;;;;;;;;;;;;;;;;;5065302;28;10744;-50
2020/12/29 00:07:02;;;;;;;;;;;;;;;;;;5061683;28;15805;-51
2020/12/29 00:09:28;;;;;;;;;;;;;;;;;;5057415;28;14358;-51
2020/12/29 00:11:53;;;;;;;;;;;;;;;;;;5070268;28;13781;-51
2020/12/29 00:14:18;;;;;;;;;;;;;;;;;;5066882;28;9331;-51
2020/12/29 00:16:44;;;;;;;;;;;;;;;;;;5069253;28;4222;-55
2020/12/29 00:19:10;;;;;;;;;;;;;;;;;;5067343;28;9559;-51
2020/12/29 00:21:36;;;;;;;;;;;;;;;;;;5065997;28;14139;-51
2020/12/29 00:24:01;;;;;;;;;;;;;;;;;;5057043;28;14208;-51
2020/12/29 00:26:26;;;;;;;;;;;;;;;;;;5068381;28;13008;-50
2020/12/29 00:28:52;;;;;;;;;;;;;;;;;;5072046;28;3947;-51
2020/12/29 00:31:18;;;;;;;;;;;;;;;;;;5065990;28;9464;-54
2020/12/29 00:33:43;;;;;;;;;;;;;;;;;;5068167;28;16822;-51
2020/12/29 00:36:08;;;;;;;;;;;;;;;;;;5067720;28;13261;-49
2020/12/29 00:38:34;;;;;;;;;;;;;;;;;;5068382;28;16073;-51
2020/12/29 00:40:59;;;;;;;;;;;;;;;;;;5068230;28;15702;-53
2020/12/29 00:43:24;;;;;;;;;;;;;;;;;;5066262;28;6933;-51
2020/12/29 00:45:50;;;;;;;;;;;;;;;;;;5067508;28;11537;-50
2020/12/29 00:48:15;;;;;;;;;;;;;;;;;;5067445;28;13742;-51
2020/12/29 00:50:40;;;;;;;;;;;;;;;;;;5065737;28;13495;-51
2020/12/29 00:53:06;;;;;;;;;;;;;;;;;;5061870;28;9112;-54
2020/12/29 00:55:32;;;;;;;;;;;;;;;;;;5068337;28;9633;-50
2020/12/29 00:57:57;;;;;;;;;;;;;;;;;;5067627;28;9996;-55
2020/12/29 01:00:22;;;;;;;;;;;;;;;;;;5065546;28;11509;-55
2020/12/29 01:02:47;;;;;;;;;;;;;;;;;;5056299;28;15727;-53
2020/12/29 01:05:15;;;;;;;;;;;;;;;;;;5053828;28;13263;-51
2020/12/29 01:07:40;;;;;;;;;;;;;;;;;;5073243;28;4054;-51
2020/12/29 01:10:06;;;;;;;;;;;;;;;;;;5068456;28;14198;-53
2020/12/29 01:12:31;;;;;;;;;;;;;;;;;;5065780;28;14236;-55
2020/12/29 01:14:56;;;;;;;;;;;;;;;;;;5064844;28;11533;-50
2020/12/29 01:17:22;;;;;;;;;;;;;;;;;;5062482;28;11740;-51
2020/12/29 01:19:47;;;;;;;;;;;;;;;;;;5058097;28;4166;-51
2020/12/29 01:22:13;;;;;;;;;;;;;;;;;;5067721;28;12195;-52
2020/12/29 01:24:38;;;;;;;;;;;;;;;;;;5061927;28;11990;-53
2020/12/29 01:27:04;;;;;;;;;;;;;;;;;;5067233;28;10344;-54
2020/12/29 01:29:29;;;;;;;;;;;;;;;;;;5065323;28;17759;-48
2020/12/29 01:31:54;;;;;;;;;;;;;;;;;;5067368;28;16894;-50
2020/12/29 01:34:19;;;;;;;;;;;;;;;;;;5067588;28;6983;-52
2020/12/29 01:36:45;;;;;;;;;;;;;;;;;;5068139;28;14050;-52
2020/12/29 01:39:10;;;;;;;;;;;;;;;;;;5078735;28;8965;-53
2020/12/29 01:41:35;;;;;;;;;;;;;;;;;;5065719;28;9371;-50
2020/12/29 01:44:17;;;;;;;;;;;;;;;;;;5067373;28;9352;-51
2020/12/29 01:46:43;;;;;;;;;;;;;;;;;;5069060;28;4310;-55
2020/12/29 01:49:10;;;;;;;;;;;;;;;;;;5064392;28;16189;-52
2020/12/29 01:51:35;;;;;;;;;;;;;;;;;;5064691;28;14836;-53
2020/12/29 01:54:00;;;;;;;;;;;;;;;;;;5066591;28;9265;-51
2020/12/29 01:56:26;;;;;;;;;;;;;;;;;;5058499;28;13195;-51
2020/12/29 01:58:51;;;;;;;;;;;;;;;;;;5045595;28;3945;-50
2020/12/29 02:01:17;;;;;;;;;;;;;;;;;;5063849;28;14715;-56
2020/12/29 02:03:42;;;;;;;;;;;;;;;;;;5065737;28;16461;-53
2020/12/29 02:06:07;;;;;;;;;;;;;;;;;;5067592;28;7356;-53
2020/12/29 02:08:33;;;;;;;;;;;;;;;;;;5055747;28;13406;-50
2020/12/29 02:10:59;;;;;;;;;;;;;;;;;;5067347;28;6924;-50
2020/12/29 02:13:24;;;;;;;;;;;;;;;;;;5048456;28;9326;-52
2020/12/29 02:15:50;;;;;;;;;;;;;;;;;;5064245;28;12104;-51
2020/12/29 02:18:16;;;;;;;;;;;;;;;;;;5067263;28;10339;-51
2020/12/29 02:20:41;;;;;;;;;;;;;;;;;;5071082;28;12873;-52
2020/12/29 02:23:07;;;;;;;;;;;;;;;;;;5071724;28;9196;-52
2020/12/29 02:25:32;;;;;;;;;;;;;;;;;;5072394;28;8355;-52
2020/12/29 02:27:57;;;;;;;;;;;;;;;;;;5070672;28;13775;-51
2020/12/29 02:30:22;;;;;;;;;;;;;;;;;;5069416;28;7577;-50
2020/12/29 02:32:48;;;;;;;;;;;;;;;;;;5068564;28;14238;-52
2020/12/29 02:35:17;;;;;;;;;;;;;;;;;;5071174;28;11263;-54
2020/12/29 02:37:42;;;;;;;;;;;;;;;;;;5073499;28;4197;-50
2020/12/29 02:40:07;;;;;;;;;;;;;;;;;;5072910;28;10275;-51
2020/12/29 02:42:33;;;;;;;;;;;;;;;;;;5072893;28;11730;-54
2020/12/29 02:44:58;;;;;;;;;;;;;;;;;;5069871;28;9641;-56
2020/12/29 02:47:23;;;;;;;;;;;;;;;;;;5070516;28;14490;-52
2020/12/29 02:49:48;;;;;;;;;;;;;;;;;;5073569;28;4228;-51
2020/12/29 02:52:14;;;;;;;;;;;;;;;;;;5071912;28;13125;-55
2020/12/29 02:54:39;;;;;;;;;;;;;;;;;;5071751;28;11605;-55
2020/12/29 02:57:04;;;;;;;;;;;;;;;;;;5077103;28;14241;-51
2020/12/29 02:59:30;;;;;;;;;;;;;;;;;;5068589;28;12504;-52
2020/12/29 03:01:56;;;;;;;;;;;;;;;;;;5071372;28;12789;-51
2020/12/29 03:04:22;;;;;;;;;;;;;;;;;;5070399;28;6983;-49
2020/12/29 03:06:47;;;;;;;;;;;;;;;;;;5071524;28;9543;-51
2020/12/29 03:09:12;;;;;;;;;;;;;;;;;;5073624;28;14114;-53
2020/12/29 03:11:38;;;;;;;;;;;;;;;;;;5070361;28;7522;-49
2020/12/29 03:14:04;;;;;;;;;;;;;;;;;;5070808;28;13600;-49
2020/12/29 03:16:30;;;;;;;;;;;;;;;;;;5070606;28;7038;-53
2020/12/29 03:18:55;;;;;;;;;;;;;;;;;;5066667;28;14076;-52
2020/12/29 03:21:21;;;;;;;;;;;;;;;;;;5070423;28;15954;-52
2020/12/29 03:23:49;;;;;;;;;;;;;;;;;;5074617;28;12983;-51
2020/12/29 03:26:15;;;;;;;;;;;;;;;;;;5070421;28;9325;-53
2020/12/29 03:28:41;;;;;;;;;;;;;;;;;;5073705;28;4052;-54
2020/12/29 03:31:06;;;;;;;;;;;;;;;;;;5068998;28;13785;-53
2020/12/29 03:33:32;;;;;;;;;;;;;;;;;;5069694;28;16357;-51
2020/12/29 03:35:57;;;;;;;;;;;;;;;;;;5069771;28;6636;-54
2020/12/29 03:38:23;;;;;;;;;;;;;;;;;;5065448;28;13432;-51
2020/12/29 03:40:48;;;;;;;;;;;;;;;;;;5071219;28;4389;-54
2020/12/29 03:43:13;;;;;;;;;;;;;;;;;;5068475;28;12674;-54
2020/12/29 03:45:40;;;;;;;;;;;;;;;;;;5070032;28;9295;-53
2020/12/29 03:48:06;;;;;;;;;;;;;;;;;;5066473;28;8980;-49
2020/12/29 03:50:31;;;;;;;;;;;;;;;;;;5064302;28;14406;-55
2020/12/29 03:52:57;;;;;;;;;;;;;;;;;;5067865;28;10909;-52
2020/12/29 03:55:22;;;;;;;;;;;;;;;;;;5068170;28;7135;-54
2020/12/29 03:57:47;;;;;;;;;;;;;;;;;;5067690;28;11138;-55
2020/12/29 04:00:12;;;;;;;;;;;;;;;;;;5062354;28;9432;-52
2020/12/29 04:02:37;;;;;;;;;;;;;;;;;;5064389;28;8815;-54
2020/12/29 04:05:03;;;;;;;;;;;;;;;;;;5052974;28;12102;-49
2020/12/29 04:07:28;;;;;;;;;;;;;;;;;;5066577;28;7845;-54
2020/12/29 04:09:53;;;;;;;;;;;;;;;;;;5066653;28;7610;-54
2020/12/29 04:12:19;;;;;;;;;;;;;;;;;;5069132;28;14382;-50
2020/12/29 04:14:44;;;;;;;;;;;;;;;;;;5066864;28;7470;-53
2020/12/29 04:17:09;;;;;;;;;;;;;;;;;;5068449;28;13026;-52
2020/12/29 04:19:34;;;;;;;;;;;;;;;;;;5069662;28;9685;-52
2020/12/29 04:21:59;;;;;;;;;;;;;;;;;;5067528;28;9956;-51
2020/12/29 04:24:25;;;;;;;;;;;;;;;;;;5063308;28;14990;-55
2020/12/29 04:26:50;;;;;;;;;;;;;;;;;;5067351;28;9926;-54
2020/12/29 04:29:15;;;;;;;;;;;;;;;;;;5067816;28;14901;-56
2020/12/29 04:31:40;;;;;;;;;;;;;;;;;;5062103;28;4233;-51
2020/12/29 04:34:06;;;;;;;;;;;;;;;;;;5063240;28;15115;-49
2020/12/29 04:36:31;;;;;;;;;;;;;;;;;;5069096;28;13402;-50
2020/12/29 04:38:56;;;;;;;;;;;;;;;;;;5068395;28;10017;-52
2020/12/29 04:41:22;;;;;;;;;;;;;;;;;;5067025;28;10237;-52
2020/12/29 04:43:47;;;;;;;;;;;;;;;;;;5070219;28;4177;-54
2020/12/29 04:46:12;;;;;;;;;;;;;;;;;;5064087;28;12921;-50
2020/12/29 04:48:38;;;;;;;;;;;;;;;;;;5059146;28;14215;-54
2020/12/29 04:51:07;;;;;;;;;;;;;;;;;;5066765;28;12064;-54
2020/12/29 04:53:33;;;;;;;;;;;;;;;;;;5061908;28;7732;-51
2020/12/29 04:56:03;;;;;;;;;;;;;;;;;;5069265;28;9197;-50
2020/12/29 04:58:31;;;;;;;;;;;;;;;;;;5068404;28;9775;-54
2020/12/29 05:00:57;;;;;;;;;;;;;;;;;;5062573;28;6400;-52
2020/12/29 05:03:26;;;;;;;;;;;;;;;;;;5064967;28;13957;-51
2020/12/29 05:05:52;;;;;;;;;;;;;;;;;;5067022;28;14315;-54
2020/12/29 05:08:18;;;;;;;;;;;;;;;;;;5068139;28;8186;-51
2020/12/29 05:10:47;;;;;;;;;;;;;;;;;;5063597;28;3880;-51
2020/12/29 05:13:12;;;;;;;;;;;;;;;;;;5065446;28;14016;-53
2020/12/29 05:15:37;;;;;;;;;;;;;;;;;;5065670;28;16159;-54
2020/12/29 05:18:02;;;;;;;;;;;;;;;;;;5067413;28;10319;-49
2020/12/29 05:20:33;;;;;;;;;;;;;;;;;;5063851;28;15451;-54
2020/12/29 05:22:58;;;;;;;;;;;;;;;;;;5064924;28;12515;-53
2020/12/29 05:25:24;;;;;;;;;;;;;;;;;;5068407;28;7108;-54
2020/12/29 05:27:50;;;;;;;;;;;;;;;;;;5064465;28;13805;-56
2020/12/29 05:30:16;;;;;;;;;;;;;;;;;;5058871;28;7036;-55
2020/12/29 05:32:43;;;;;;;;;;;;;;;;;;5064300;28;8443;-51
2020/12/29 05:35:12;;;;;;;;;;;;;;;;;;5067726;28;10809;-53
2020/12/29 05:37:38;;;;;;;;;;;;;;;;;;5068265;28;3964;-52
2020/12/29 05:40:25;;;;;;;;;;;;;;;;;;5062727;28;12320;-52
2020/12/29 05:42:53;;;;;;;;;;;;;;;;;;5049068;28;15506;-55
2020/12/29 05:45:18;;;;;;;;;;;;;;;;;;5069395;28;11265;-54
2020/12/29 05:47:45;;;;;;;;;;;;;;;;;;5066865;28;14158;-55
2020/12/29 05:50:10;;;;;;;;;;;;;;;;;;5066090;28;14764;-51
2020/12/29 05:52:36;;;;;;;;;;;;;;;;;;5066591;28;6922;-52
2020/12/29 05:55:02;;;;;;;;;;;;;;;;;;5066239;28;14645;-56
2020/12/29 05:57:28;;;;;;;;;;;;;;;;;;5065016;28;12021;-53
2020/12/29 05:59:54;;;;;;;;;;;;;;;;;;5063766;28;12706;-54
2020/12/29 06:02:19;;;;;;;;;;;;;;;;;;5066364;28;16196;-49
2020/12/29 06:04:45;;;;;;;;;;;;;;;;;;5065403;28;4234;-49
2020/12/29 06:07:11;;;;;;;;;;;;;;;;;;5064002;28;15042;-55
2020/12/29 06:09:37;;;;;;;;;;;;;;;;;;5064029;28;11554;-51
2020/12/29 06:12:08;;;;;;;;;;;;;;;;;;5065945;28;10723;-51
2020/12/29 06:14:43;;;;;;;;;;;;;;;;;;5063285;28;12704;-54
2020/12/29 06:17:15;;;;;;;;;;;;;;;;;;5063036;28;12829;-54
2020/12/29 06:19:46;;;;;;;;;;;;;;;;;;5065978;28;3943;-54
2020/12/29 06:22:12;;;;;;;;;;;;;;;;;;5063667;28;14386;-52
2020/12/29 06:24:40;;;;;;;;;;;;;;;;;;5061177;28;15612;-53
2020/12/29 06:27:06;;;;;;;;;;;;;;;;;;5055989;28;14363;-51
2020/12/29 06:29:41;;;;;;;;;;;;;;;;;;5064077;28;15245;-49
2020/12/29 06:32:09;;;;;;;;;;;;;;;;;;5062683;28;14970;-50
2020/12/29 06:34:35;;;;;;;;;;;;;;;;;;5064760;28;8329;-54
2020/12/29 06:37:19;;;;;;;;;;;;;;;;;;5065913;28;14679;-49
2020/12/29 06:39:47;;;;;;;;;;;;;;;;;;5059606;28;14384;-51
2020/12/29 06:42:12;;;;;;;;;;;;;;;;;;5068050;28;9991;-51
2020/12/29 06:44:38;;;;;;;;;;;;;;;;;;5061626;28;13884;-52
2020/12/29 06:47:09;;;;;;;;;;;;;;;;;;5067885;28;15734;-53
2020/12/29 06:49:35;;;;;;;;;;;;;;;;;;5065665;28;6978;-53
2020/12/29 06:52:36;;;;;;;;;;;;;;;;;;5064298;28;6691;-53
2020/12/29 06:55:01;;;;;;;;;;;;;;;;;;5005112;28;12921;-56
2020/12/29 06:57:35;;;;;;;;;;;;;;;;;;5010943;28;11256;-52
2020/12/29 07:00:00;;;;;;;;;;;;;;;;;;5004816;28;9995;-54
2020/12/29 07:02:35;;;;;;;;;;;;;;;;;;4999951;28;9552;-49
2020/12/29 07:05:10;;;;;;;;;;;;;;;;;;5010718;28;13573;-54
2020/12/29 07:07:44;;;;;;;;;;;;;;;;;;5013003;28;7684;-53
2020/12/29 07:10:13;;;;;;;;;;;;;;;;;;5012609;28;16035;-50
2020/12/29 07:12:42;;;;;;;;;;;;;;;;;;5008116;28;11435;-50
2020/12/29 07:15:08;;;;;;;;;;;;;;;;;;5007302;28;13967;-54
2020/12/29 07:17:33;;;;;;;;;;;;;;;;;;5006617;28;15304;-53
2020/12/29 07:19:59;;;;;;;;;;;;;;;;;;4997546;28;12466;-51
2020/12/29 07:22:25;;;;;;;;;;;;;;;;;;5008587;28;9967;-52
2020/12/29 07:24:50;;;;;;;;;;;;;;;;;;5006761;28;8439;-53
2020/12/29 07:27:19;;;;;;;;;;;;;;;;;;5007785;28;14656;-53
2020/12/29 07:29:52;;;;;;;;;;;;;;;;;;5057178;28;9685;-52
2020/12/29 07:32:18;;;;;;;;;;;;;;;;;;5069510;28;10038;-53
2020/12/29 07:34:45;;;;;;;;;;;;;;;;;;5070828;28;4700;-51
2020/12/29 07:37:11;;;;;;;;;;;;;;;;;;5062318;28;16879;-53
2020/12/29 07:39:36;;;;;;;;;;;;;;;;;;5063737;28;12684;-51
2020/12/29 07:42:01;;;;;;;;;;;;;;;;;;5059893;28;6909;-52
2020/12/29 07:44:27;;;;;;;;;;;;;;;;;;5058786;28;12784;-53
2020/12/29 07:46:52;;;;;;;;;;;;;;;;;;5069186;28;3979;-49
2020/12/29 07:49:18;;;;;;;;;;;;;;;;;;5069651;28;15726;-52
2020/12/29 07:51:49;;;;;;;;;;;;;;;;;;5069532;28;10040;-51
2020/12/29 07:54:17;;;;;;;;;;;;;;;;;;5068376;28;14147;-51
2020/12/29 07:56:43;;;;;;;;;;;;;;;;;;5061058;28;9201;-55
2020/12/29 07:59:11;;;;;;;;;;;;;;;;;;5069161;28;16084;-52
2020/12/29 08:01:48;;;;;;;;;;;;;;;;;;5059354;28;8854;-51
2020/12/29 08:04:27;;;;;;;;;;;;;;;;;;5064454;28;10673;-49
2020/12/29 08:06:52;;;;;;;;;;;;;;;;;;5066091;28;13541;-51
2020/12/29 08:09:18;;;;;;;;;;;;;;;;;;5066274;28;12981;-53
2020/12/29 08:11:43;;;;;;;;;;;;;;;;;;5059081;28;8882;-49
2020/12/29 08:14:09;;;;;;;;;;;;;;;;;;5063402;28;10327;-51
2020/12/29 08:16:34;;;;;;;;;;;;;;;;;;5062458;28;6957;-51
2020/12/29 08:19:00;;;;;;;;;;;;;;;;;;5059295;28;17195;-51
2020/12/29 08:21:25;;;;;;;;;;;;;;;;;;5075307;28;9039;-49
2020/12/29 08:23:55;;;;;;;;;;;;;;;;;;5065724;28;8835;-53
2020/12/29 08:26:21;;;;;;;;;;;;;;;;;;5062336;28;12657;-52
2020/12/29 08:28:46;;;;;;;;;;;;;;;;;;5067042;28;3967;-53
2020/12/29 08:31:12;;;;;;;;;;;;;;;;;;5062512;28;9422;-54
2020/12/29 08:33:38;;;;;;;;;;;;;;;;;;5062451;28;16400;-57
2020/12/29 08:36:04;;;;;;;;;;;;;;;;;;5066074;28;12996;-53
2020/12/29 08:38:53;;;;;;;;;;;;;;;;;;5075062;28;16053;-50
2020/12/29 08:41:21;;;;;;;;;;;;;;;;;;5057230;28;7385;-53
2020/12/29 08:43:48;;;;;;;;;;;;;;;;;;5063568;28;4413;-54
2020/12/29 08:46:20;;;;;;;;;;;;;;;;;;5065821;28;14681;-52
2020/12/29 08:49:05;;;;;;;;;;;;;;;;;;5062532;28;12094;-53
2020/12/29 08:51:30;;;;;;;;;;;;;;;;;;5067387;28;14489;-49
2020/12/29 08:54:07;;;;;;;;;;;;;;;;;;5066231;28;14448;-51
2020/12/29 08:56:32;;;;;;;;;;;;;;;;;;5054542;28;9387;-53
2020/12/29 08:59:06;;;;;;;;;;;;;;;;;;5060463;28;4185;-52
2020/12/29 09:01:40;;;;;;;;;;;;;;;;;;5061894;28;9339;-53
2020/12/29 09:04:24;;;;;;;;;;;;;;;;;;5061932;28;11771;-52
2020/12/29 09:06:55;;;;;;;;;;;;;;;;;;5060335;28;16269;-52
2020/12/29 09:09:20;;;;;;;;;;;;;;;;;;5067630;28;15966;-54
2020/12/29 09:11:45;;;;;;;;;;;;;;;;;;5058976;28;14508;-54
2020/12/29 09:14:11;;;;;;;;;;;;;;;;;;5067909;28;9390;-53
2020/12/29 09:16:36;;;;;;;;;;;;;;;;;;5068703;28;9867;-49
2020/12/29 09:19:12;;;;;;;;;;;;;;;;;;5063993;28;14014;-51
2020/12/29 09:21:37;;;;;;;;;;;;;;;;;;5063891;28;9089;-53
2020/12/29 09:24:03;;;;;;;;;;;;;;;;;;5065490;28;13257;-54
2020/12/29 09:26:28;;;;;;;;;;;;;;;;;;5063932;28;8266;-54
2020/12/29 09:28:54;;;;;;;;;;;;;;;;;;5068529;28;4074;-51
2020/12/29 09:31:26;;;;;;;;;;;;;;;;;;5066629;28;13416;-53
2020/12/29 09:33:52;;;;;;;;;;;;;;;;;;5066100;28;14336;-51
2020/12/29 09:36:21;;;;;;;;;;;;;;;;;;5066533;28;10045;-54
2020/12/29 09:38:48;;;;;;;;;;;;;;;;;;5065768;28;8202;-54
2020/12/29 09:41:13;;;;;;;;;;;;;;;;;;5067760;28;14268;-54
2020/12/29 09:43:38;;;;;;;;;;;;;;;;;;5068631;28;8339;-51
2020/12/29 09:46:03;;;;;;;;;;;;;;;;;;5059837;28;15467;-52
2020/12/29 09:48:28;;;;;;;;;;;;;;;;;;5059858;28;13018;-52
2020/12/29 09:50:54;;;;;;;;;;;;;;;;;;5055556;28;10840;-51
2020/12/29 09:53:19;;;;;;;;;;;;;;;;;;5062401;28;16066;-52
2020/12/29 09:55:45;;;;;;;;;;;;;;;;;;5064553;28;3975;-52
2020/12/29 09:58:10;;;;;;;;;;;;;;;;;;5060436;28;6745;-57
2020/12/29 10:00:36;;;;;;;;;;;;;;;;;;5059015;28;11018;-53
2020/12/29 10:03:01;;;;;;;;;;;;;;;;;;5068136;28;11444;-53
2020/12/29 10:05:27;;;;;;;;;;;;;;;;;;5063274;28;11420;-53
2020/12/29 10:07:52;;;;;;;;;;;;;;;;;;5068374;28;4310;-53
2020/12/29 10:10:18;;;;;;;;;;;;;;;;;;5062935;28;9087;-49
2020/12/29 10:12:43;;;;;;;;;;;;;;;;;;5054017;28;8537;-52
2020/12/29 10:15:09;;;;;;;;;;;;;;;;;;5056939;28;17672;-49
2020/12/29 10:17:34;;;;;;;;;;;;;;;;;;5066742;28;10849;-54
2020/12/29 10:20:00;;;;;;;;;;;;;;;;;;5067621;28;4014;-50
2020/12/29 10:22:25;;;;;;;;;;;;;;;;;;5062180;28;8104;-54
2020/12/29 10:24:51;;;;;;;;;;;;;;;;;;5066171;28;11948;-55
2020/12/29 10:27:16;;;;;;;;;;;;;;;;;;5066685;28;9472;-54
2020/12/29 10:29:41;;;;;;;;;;;;;;;;;;5062452;28;9596;-52
2020/12/29 10:32:06;;;;;;;;;;;;;;;;;;5060116;28;12710;-50
2020/12/29 10:34:32;;;;;;;;;;;;;;;;;;5068145;28;7034;-55
2020/12/29 10:36:57;;;;;;;;;;;;;;;;;;5063707;28;9364;-53
2020/12/29 10:39:22;;;;;;;;;;;;;;;;;;5066156;28;10529;-49
2020/12/29 10:41:47;;;;;;;;;;;;;;;;;;5065235;28;13291;-54
2020/12/29 10:44:13;;;;;;;;;;;;;;;;;;5065577;28;13080;-54
2020/12/29 10:46:38;;;;;;;;;;;;;;;;;;5065045;28;9313;-53
2020/12/29 10:49:04;;;;;;;;;;;;;;;;;;5063582;28;13041;-54
2020/12/29 10:51:29;;;;;;;;;;;;;;;;;;5061329;28;9595;-52
2020/12/29 10:53:55;;;;;;;;;;;;;;;;;;5057300;28;15176;-54
2020/12/29 10:56:21;;;;;;;;;;;;;;;;;;5069522;28;10794;-53
2020/12/29 10:58:46;;;;;;;;;;;;;;;;;;5070032;28;4233;-54
2020/12/29 11:01:12;;;;;;;;;;;;;;;;;;5066523;28;11375;-52
2020/12/29 11:03:38;;;;;;;;;;;;;;;;;;5067077;28;15479;-53
2020/12/29 11:06:11;;;;;;;;;;;;;;;;;;5057087;28;16250;-54
2020/12/29 11:08:36;;;;;;;;;;;;;;;;;;5055255;28;13514;-51
2020/12/29 11:11:01;;;;;;;;;;;;;;;;;;5067977;28;3908;-51
2020/12/29 11:13:27;;;;;;;;;;;;;;;;;;5069041;28;9402;-54
2020/12/29 11:15:52;;;;;;;;;;;;;;;;;;5066284;28;13661;-54
2020/12/29 11:18:17;;;;;;;;;;;;;;;;;;5066912;28;10431;-57
2020/12/29 11:20:43;;;;;;;;;;;;;;;;;;5062038;28;10869;-55
2020/12/29 11:23:08;;;;;;;;;;;;;;;;;;5069317;28;12550;-55
2020/12/29 11:25:33;;;;;;;;;;;;;;;;;;5071075;28;7636;-54
2020/12/29 11:27:59;;;;;;;;;;;;;;;;;;5068373;28;10649;-50
2020/12/29 11:30:24;;;;;;;;;;;;;;;;;;5062312;28;15316;-55
2020/12/29 11:32:49;;;;;;;;;;;;;;;;;;5062880;28;14710;-53
2020/12/29 11:35:15;;;;;;;;;;;;;;;;;;5065968;28;9439;-52
2020/12/29 11:37:40;;;;;;;;;;;;;;;;;;5066251;28;7511;-55
2020/12/29 11:40:05;;;;;;;;;;;;;;;;;;5064322;28;9462;-52
2020/12/29 11:42:30;;;;;;;;;;;;;;;;;;5066012;28;15896;-53
2020/12/29 11:44:56;;;;;;;;;;;;;;;;;;5059821;28;12986;-55
2020/12/29 11:47:21;;;;;;;;;;;;;;;;;;5055075;28;13915;-53
2020/12/29 11:49:46;;;;;;;;;;;;;;;;;;5069037;28;4141;-50
2020/12/29 11:52:12;;;;;;;;;;;;;;;;;;5063820;28;15337;-52
2020/12/29 11:54:37;;;;;;;;;;;;;;;;;;5063145;28;7536;-50
2020/12/29 11:57:02;;;;;;;;;;;;;;;;;;5065153;28;7944;-54
2020/12/29 11:59:28;;;;;;;;;;;;;;;;;;5061595;28;10632;-53
2020/12/29 12:01:53;;;;;;;;;;;;;;;;;;5064651;28;4154;-54
2020/12/29 12:04:18;;;;;;;;;;;;;;;;;;5060743;28;10358;-53
2020/12/29 12:06:45;;;;;;;;;;;;;;;;;;5058574;28;13071;-53
2020/12/29 12:09:12;;;;;;;;;;;;;;;;;;5059823;28;11484;-52
2020/12/29 12:11:37;;;;;;;;;;;;;;;;;;5074500;28;16248;-52
2020/12/29 12:14:02;;;;;;;;;;;;;;;;;;5070975;28;4103;-54
2020/12/29 12:16:27;;;;;;;;;;;;;;;;;;5065730;28;11375;-51
2020/12/29 12:18:53;;;;;;;;;;;;;;;;;;5062289;28;14086;-56
2020/12/29 12:21:18;;;;;;;;;;;;;;;;;;5066673;28;11317;-50
2020/12/29 12:23:43;;;;;;;;;;;;;;;;;;5063853;28;9631;-49
2020/12/29 12:26:15;;;;;;;;;;;;;;;;;;5069528;28;13479;-52
2020/12/29 12:28:40;;;;;;;;;;;;;;;;;;5069519;28;9712;-53
2020/12/29 12:31:05;;;;;;;;;;;;;;;;;;5067751;28;8417;-52
2020/12/29 12:33:30;;;;;;;;;;;;;;;;;;5063969;28;6869;-51
2020/12/29 12:35:56;;;;;;;;;;;;;;;;;;5047839;28;11913;-55
2020/12/29 12:38:21;;;;;;;;;;;;;;;;;;5062904;28;15310;-51
2020/12/29 12:40:46;;;;;;;;;;;;;;;;;;5065497;28;4124;-54
2020/12/29 12:43:12;;;;;;;;;;;;;;;;;;5063470;28;9760;-53
2020/12/29 12:45:37;;;;;;;;;;;;;;;;;;5059906;28;14251;-53
2020/12/29 12:48:02;;;;;;;;;;;;;;;;;;5068366;28;14225;-53
2020/12/29 12:50:27;;;;;;;;;;;;;;;;;;5067348;28;15235;-52
2020/12/29 12:52:53;;;;;;;;;;;;;;;;;;5069620;28;4205;-52
2020/12/29 12:55:18;;;;;;;;;;;;;;;;;;5055635;28;11123;-51
2020/12/29 12:57:43;;;;;;;;;;;;;;;;;;5061296;28;12895;-54
2020/12/29 13:00:08;;;;;;;;;;;;;;;;;;5067096;28;13007;-50
2020/12/29 13:02:34;;;;;;;;;;;;;;;;;;5063839;28;9390;-52
2020/12/29 13:04:59;;;;;;;;;;;;;;;;;;5054162;28;5112;-50
2020/12/29 13:07:24;;;;;;;;;;;;;;;;;;5066472;28;10944;-51
2020/12/29 13:09:49;;;;;;;;;;;;;;;;;;5066522;28;10756;-53
2020/12/29 13:12:15;;;;;;;;;;;;;;;;;;5065181;28;12994;-51
2020/12/29 13:14:40;;;;;;;;;;;;;;;;;;5066752;28;13075;-52
2020/12/29 13:17:05;;;;;;;;;;;;;;;;;;5063327;28;14128;-52
2020/12/29 13:19:30;;;;;;;;;;;;;;;;;;5067042;28;9768;-54
2020/12/29 13:21:56;;;;;;;;;;;;;;;;;;5064090;28;8296;-50
2020/12/29 13:24:21;;;;;;;;;;;;;;;;;;5062448;28;11106;-51
2020/12/29 13:26:50;;;;;;;;;;;;;;;;;;5061591;28;13105;-54
2020/12/29 13:29:15;;;;;;;;;;;;;;;;;;5064730;28;11033;-52
2020/12/29 13:31:40;;;;;;;;;;;;;;;;;;5056982;28;7638;-50
2020/12/29 13:34:07;;;;;;;;;;;;;;;;;;5062998;28;11829;-55
2020/12/29 13:36:32;;;;;;;;;;;;;;;;;;5066111;28;10900;-48
2020/12/29 13:38:57;;;;;;;;;;;;;;;;;;5067325;28;12928;-55
2020/12/29 13:41:22;;;;;;;;;;;;;;;;;;5067098;28;14130;-54
2020/12/29 13:43:48;;;;;;;;;;;;;;;;;;5064762;28;4496;-53
2020/12/29 13:46:13;;;;;;;;;;;;;;;;;;5047983;28;13942;-49
2020/12/29 13:48:38;;;;;;;;;;;;;;;;;;5047383;28;11009;-56
2020/12/29 13:51:05;;;;;;;;;;;;;;;;;;5046697;28;11333;-53
2020/12/29 13:53:30;;;;;;;;;;;;;;;;;;5045978;28;14255;-54
2020/12/29 13:55:55;;;;;;;;;;;;;;;;;;5047331;28;4239;-52
2020/12/29 13:58:20;;;;;;;;;;;;;;;;;;5044362;28;15662;-54
2020/12/29 14:00:46;;;;;;;;;;;;;;;;;;5047026;28;8941;-53
2020/12/29 14:03:11;;;;;;;;;;;;;;;;;;5041439;28;11351;-49
2020/12/29 14:05:37;;;;;;;;;;;;;;;;;;5047196;28;13102;-52
2020/12/29 14:08:02;;;;;;;;;;;;;;;;;;5049017;28;4202;-53
2020/12/29 14:10:28;;;;;;;;;;;;;;;;;;5046563;28;6417;-55
2020/12/29 14:12:53;;;;;;;;;;;;;;;;;;5046929;28;9832;-52
2020/12/29 14:15:20;;;;;;;;;;;;;;;;;;5046450;28;16467;-51
2020/12/29 14:17:45;;;;;;;;;;;;;;;;;;5048036;28;13326;-56
2020/12/29 14:20:10;;;;;;;;;;;;;;;;;;5047529;28;7771;-53
2020/12/29 14:22:36;;;;;;;;;;;;;;;;;;5047720;28;10430;-51
2020/12/29 14:25:01;;;;;;;;;;;;;;;;;;5046378;28;16666;-54
2020/12/29 14:27:26;;;;;;;;;;;;;;;;;;5044481;28;13894;-54
2020/12/29 14:29:52;;;;;;;;;;;;;;;;;;5038551;28;12588;-53
2020/12/29 14:32:17;;;;;;;;;;;;;;;;;;5047169;28;8611;-52
2020/12/29 14:34:42;;;;;;;;;;;;;;;;;;5047140;28;7833;-57
2020/12/29 14:37:07;;;;;;;;;;;;;;;;;;5046694;28;6722;-51
2020/12/29 14:39:33;;;;;;;;;;;;;;;;;;5044953;28;9902;-53
2020/12/29 14:41:58;;;;;;;;;;;;;;;;;;5045958;28;14097;-52
2020/12/29 14:44:23;;;;;;;;;;;;;;;;;;5061013;28;14412;-52
2020/12/29 14:46:51;;;;;;;;;;;;;;;;;;5069175;28;4286;-51
2020/12/29 14:49:16;;;;;;;;;;;;;;;;;;5065849;28;14813;-53
2020/12/29 14:51:42;;;;;;;;;;;;;;;;;;5067118;28;9090;-54
2020/12/29 14:54:07;;;;;;;;;;;;;;;;;;5066075;28;15417;-49
2020/12/29 14:56:34;;;;;;;;;;;;;;;;;;5048945;28;11502;-50
2020/12/29 14:59:00;;;;;;;;;;;;;;;;;;5065633;28;3971;-53
2020/12/29 15:01:26;;;;;;;;;;;;;;;;;;5060234;28;12729;-52
2020/12/29 15:03:52;;;;;;;;;;;;;;;;;;5060786;28;12572;-54
2020/12/29 15:06:30;;;;;;;;;;;;;;;;;;5056606;28;14390;-51
2020/12/29 15:08:57;;;;;;;;;;;;;;;;;;5066362;28;9333;-55
2020/12/29 15:11:23;;;;;;;;;;;;;;;;;;5057131;28;8823;-51
2020/12/29 15:13:48;;;;;;;;;;;;;;;;;;5068260;28;3927;-52
2020/12/29 15:16:14;;;;;;;;;;;;;;;;;;5062108;28;10862;-54
2020/12/29 15:18:40;;;;;;;;;;;;;;;;;;5063055;28;16936;-54
2020/12/29 15:21:05;;;;;;;;;;;;;;;;;;5062953;28;12350;-51
2020/12/29 15:23:30;;;;;;;;;;;;;;;;;;5058809;28;14632;-55
2020/12/29 15:25:56;;;;;;;;;;;;;;;;;;5067781;28;4296;-54
2020/12/29 15:28:21;;;;;;;;;;;;;;;;;;5068056;28;10711;-56
2020/12/29 15:30:47;;;;;;;;;;;;;;;;;;5059804;28;11300;-51
2020/12/29 15:33:12;;;;;;;;;;;;;;;;;;5058833;28;10781;-55
2020/12/29 15:35:37;;;;;;;;;;;;;;;;;;5069931;28;13523;-50
2020/12/29 15:38:03;;;;;;;;;;;;;;;;;;5065635;28;3904;-55
2020/12/29 15:40:28;;;;;;;;;;;;;;;;;;5066623;28;8092;-50
2020/12/29 15:42:53;;;;;;;;;;;;;;;;;;5069825;28;8921;-54
2020/12/29 15:45:18;;;;;;;;;;;;;;;;;;5067148;28;12069;-50
2020/12/29 15:47:44;;;;;;;;;;;;;;;;;;5066166;28;12304;-52
2020/12/29 15:50:09;;;;;;;;;;;;;;;;;;5065164;28;13678;-50
2020/12/29 15:52:34;;;;;;;;;;;;;;;;;;5057103;28;8916;-54
2020/12/29 15:54:59;;;;;;;;;;;;;;;;;;5061522;28;14481;-53
2020/12/29 15:57:25;;;;;;;;;;;;;;;;;;5066266;28;12252;-51
2020/12/29 15:59:50;;;;;;;;;;;;;;;;;;5065993;28;16113;-53
2020/12/29 16:02:15;;;;;;;;;;;;;;;;;;5067816;28;16222;-52
2020/12/29 16:04:40;;;;;;;;;;;;;;;;;;5067251;28;6914;-56
2020/12/29 16:07:06;;;;;;;;;;;;;;;;;;5066724;28;8966;-51
2020/12/29 16:09:31;;;;;;;;;;;;;;;;;;5069278;28;9340;-52
2020/12/29 16:11:56;;;;;;;;;;;;;;;;;;5057998;28;10819;-52
2020/12/29 16:14:24;;;;;;;;;;;;;;;;;;5057245;28;7952;-53
2020/12/29 16:16:50;;;;;;;;;;;;;;;;;;5056428;28;3472;-56
2020/12/29 16:19:15;;;;;;;;;;;;;;;;;;5061935;28;9641;-52
2020/12/29 16:21:40;;;;;;;;;;;;;;;;;;5066749;28;14855;-55
2020/12/29 16:24:06;;;;;;;;;;;;;;;;;;5057042;28;14598;-50
2020/12/29 16:26:31;;;;;;;;;;;;;;;;;;5065043;28;13170;-53
2020/12/29 16:28:56;;;;;;;;;;;;;;;;;;5038835;28;4062;-50
2020/12/29 16:31:35;;;;;;;;;;;;;;;;;;5063482;28;14399;-52
2020/12/29 16:34:00;;;;;;;;;;;;;;;;;;5066706;28;8307;-53
2020/12/29 16:36:29;;;;;;;;;;;;;;;;;;5061930;28;16456;-55
2020/12/29 16:38:54;;;;;;;;;;;;;;;;;;5045526;28;6206;-52
2020/12/29 16:41:24;;;;;;;;;;;;;;;;;;5053700;28;14684;-51
2020/12/29 16:43:50;;;;;;;;;;;;;;;;;;5064029;28;3964;-51
2020/12/29 16:46:15;;;;;;;;;;;;;;;;;;5063040;28;16736;-54
2020/12/29 16:48:40;;;;;;;;;;;;;;;;;;5062264;28;9964;-51